Time;durP1;ratioP1;P1;durP2;ratioP2;P2;SDS_P1;SDS_P2;PMS_P1;PMS_P2;Temp;Humidity;BMP_temperature;BMP_pressure;BME280_temperature;BME280_humidity;BME280_pressure;Samples;Min_cycle;Max_cycle;Signal;HPM_P1;HPM_P2
2022/08/27 00:02:03;;;;;;;0.88;0.47;;;24.40;84.50;;;;;;5055890;28;45762;-69
2022/08/27 00:04:30;;;;;;;1.25;0.40;;;24.40;84.50;;;;;;5060617;28;45282;-68
2022/08/27 00:06:57;;;;;;;1.88;0.50;;;24.40;84.60;;;;;;5057226;28;45519;-69
2022/08/27 00:09:24;;;;;;;0.80;0.50;;;24.40;84.60;;;;;;5059182;28;45586;-69
2022/08/27 00:11:52;;;;;;;0.95;0.50;;;24.40;84.60;;;;;;5057478;28;45663;-69
2022/08/27 00:14:19;;;;;;;0.50;0.40;;;24.40;84.70;;;;;;5056907;28;45366;-68
2022/08/27 00:16:46;;;;;;;1.63;0.63;;;24.40;84.70;;;;;;5060259;28;45511;-68
2022/08/27 00:19:12;;;;;;;0.50;0.45;;;24.40;84.70;;;;;;5056010;28;46091;-69
2022/08/27 00:21:39;;;;;;;0.88;0.60;;;24.40;84.80;;;;;;5058570;28;45541;-68
2022/08/27 00:24:06;;;;;;;1.73;0.60;;;24.40;84.70;;;;;;5057195;28;45502;-69
2022/08/27 00:26:33;;;;;;;0.85;0.50;;;24.40;84.70;;;;;;5054728;28;45714;-69
2022/08/27 00:29:02;;;;;;;1.02;0.70;;;24.40;84.70;;;;;;5056833;28;48055;-68
2022/08/27 00:31:28;;;;;;;0.70;0.57;;;24.40;84.70;;;;;;5054794;28;45404;-69
2022/08/27 00:33:55;;;;;;;1.38;0.50;;;24.40;84.70;;;;;;5058119;28;45356;-68
2022/08/27 00:36:23;;;;;;;2.00;0.70;;;24.30;84.60;;;;;;5056464;28;45348;-68
2022/08/27 00:38:50;;;;;;;1.17;0.60;;;24.30;84.60;;;;;;5056798;28;47195;-68
2022/08/27 00:41:18;;;;;;;1.40;0.68;;;24.30;84.60;;;;;;5055464;28;45358;-68
2022/08/27 00:43:49;;;;;;;1.75;0.60;;;24.30;84.70;;;;;;5059750;28;45520;-68
2022/08/27 00:46:24;;;;;;;1.23;0.57;;;24.30;84.70;;;;;;5051777;28;45437;-69
2022/08/27 00:48:55;;;;;;;1.73;0.68;;;24.30;84.70;;;;;;5051476;28;46340;-68
2022/08/27 00:51:23;;;;;;;0.50;0.45;;;24.30;84.70;;;;;;5057517;28;45409;-68
2022/08/27 00:53:53;;;;;;;1.77;0.50;;;24.40;84.80;;;;;;5055766;28;45357;-69
2022/08/27 00:56:23;;;;;;;3.42;0.82;;;24.40;84.80;;;;;;5052336;28;45582;-68
2022/08/27 00:58:52;;;;;;;1.27;0.40;;;24.30;84.70;;;;;;5054664;28;45517;-68
2022/08/27 01:01:24;;;;;;;1.05;0.50;;;24.40;84.80;;;;;;5060325;28;45464;-68
2022/08/27 01:03:53;;;;;;;0.52;0.30;;;24.40;84.70;;;;;;5055078;28;45486;-68
2022/08/27 01:06:22;;;;;;;1.02;0.55;;;24.40;84.70;;;;;;5060707;28;45507;-68
2022/08/27 01:08:56;;;;;;;0.50;0.50;;;24.40;84.70;;;;;;5056699;28;48086;-68
2022/08/27 01:11:23;;;;;;;0.65;0.50;;;24.40;84.70;;;;;;5054387;28;45374;-68
2022/08/27 01:13:51;;;;;;;0.85;0.60;;;24.40;84.60;;;;;;5056741;28;45306;-69
2022/08/27 01:16:22;;;;;;;1.98;0.60;;;24.30;84.60;;;;;;5053499;28;45545;-68
2022/08/27 01:18:49;;;;;;;1.85;0.52;;;24.40;84.60;;;;;;5058963;28;46344;-69
2022/08/27 01:21:27;;;;;;;0.70;0.47;;;24.30;84.60;;;;;;5061545;28;45530;-69
2022/08/27 01:24:03;;;;;;;1.15;0.50;;;24.40;84.60;;;;;;5069763;28;45384;-68
2022/08/27 01:26:32;;;;;;;1.17;0.63;;;24.30;84.60;;;;;;5082635;28;45563;-68
2022/08/27 01:28:59;;;;;;;1.23;0.60;;;24.30;84.60;;;;;;5081368;28;47558;-68
2022/08/27 01:31:28;;;;;;;0.85;0.40;;;24.30;84.60;;;;;;5082489;28;45340;-68
2022/08/27 01:33:58;;;;;;;0.57;0.43;;;24.40;84.70;;;;;;5081969;28;45353;-68
2022/08/27 01:36:25;;;;;;;2.00;0.70;;;24.30;84.70;;;;;;5082099;28;45318;-68
2022/08/27 01:38:52;;;;;;;0.70;0.52;;;24.30;84.70;;;;;;5081605;28;45397;-69
2022/08/27 01:41:19;;;;;;;1.05;0.40;;;24.30;84.70;;;;;;5081331;28;45364;-68
2022/08/27 01:43:48;;;;;;;1.05;0.73;;;24.30;84.70;;;;;;5082413;28;45406;-68
2022/08/27 01:46:15;;;;;;;0.55;0.50;;;24.30;84.70;;;;;;5082110;28;45557;-68
2022/08/27 01:48:42;;;;;;;1.65;0.52;;;24.30;84.70;;;;;;5081759;28;46381;-68
2022/08/27 01:51:09;;;;;;;1.75;0.50;;;24.30;84.70;;;;;;5081155;28;45299;-67
2022/08/27 01:53:35;;;;;;;1.08;0.60;;;24.30;84.70;;;;;;5051998;28;45512;-68
2022/08/27 01:56:03;;;;;;;1.48;0.60;;;24.30;84.70;;;;;;5041262;28;45296;-68
2022/08/27 01:58:32;;;;;;;1.55;0.70;;;24.30;84.70;;;;;;5057837;28;48667;-68
2022/08/27 02:01:04;;;;;;;1.45;0.50;;;24.30;84.70;;;;;;5064200;28;45828;-68
2022/08/27 02:03:31;;;;;;;1.10;0.57;;;24.30;84.70;;;;;;5062137;28;45349;-68
2022/08/27 02:05:59;;;;;;;0.63;0.52;;;24.30;84.60;;;;;;5065164;28;45418;-68
2022/08/27 02:08:26;;;;;;;1.40;0.85;;;24.30;84.60;;;;;;5063455;28;48394;-68
2022/08/27 02:10:52;;;;;;;0.95;0.57;;;24.30;84.60;;;;;;5063348;28;45364;-68
2022/08/27 02:13:19;;;;;;;0.98;0.60;;;24.30;84.60;;;;;;5062009;28;45241;-65
2022/08/27 02:15:46;;;;;;;1.23;0.63;;;24.30;84.50;;;;;;5080056;28;45395;-68
2022/08/27 02:18:15;;;;;;;0.30;0.30;;;24.30;84.40;;;;;;5084887;28;46732;-68
2022/08/27 02:20:44;;;;;;;0.73;0.50;;;24.20;84.30;;;;;;5084893;28;45408;-68
2022/08/27 02:23:11;;;;;;;0.90;0.50;;;24.30;84.30;;;;;;5085070;28;45218;-68
2022/08/27 02:25:38;;;;;;;2.00;0.68;;;24.30;84.10;;;;;;5085308;28;45554;-69
2022/08/27 02:28:07;;;;;;;1.05;0.50;;;24.30;84.10;;;;;;5084872;28;48391;-68
2022/08/27 02:30:36;;;;;;;1.25;0.40;;;24.20;83.90;;;;;;5084568;28;45737;-67
2022/08/27 02:33:04;;;;;;;0.60;0.50;;;24.30;83.90;;;;;;5084473;28;45192;-68
2022/08/27 02:35:37;;;;;;;0.60;0.45;;;24.20;83.70;;;;;;5085241;28;45268;-68
2022/08/27 02:38:05;;;;;;;1.08;0.40;;;24.20;83.60;;;;;;5084617;28;48197;-68
2022/08/27 02:40:32;;;;;;;0.43;0.40;;;24.20;83.60;;;;;;5083932;28;45497;-68
2022/08/27 02:42:58;;;;;;;0.68;0.40;;;24.30;83.60;;;;;;5084843;28;45404;-68
2022/08/27 02:45:25;;;;;;;0.60;0.40;;;24.20;83.50;;;;;;5084878;28;45399;-68
2022/08/27 02:47:53;;;;;;;0.93;0.50;;;24.20;83.30;;;;;;5083184;28;48057;-68
2022/08/27 02:50:20;;;;;;;0.63;0.43;;;24.20;83.20;;;;;;5083999;28;45466;-68
2022/08/27 02:52:48;;;;;;;0.68;0.40;;;24.20;83.00;;;;;;5084706;28;45453;-68
2022/08/27 02:55:15;;;;;;;0.63;0.40;;;24.20;82.90;;;;;;5084916;28;45528;-68
2022/08/27 02:57:42;;;;;;;0.75;0.47;;;24.20;82.80;;;;;;5084133;28;48414;-68
2022/08/27 03:00:12;;;;;;;0.50;0.50;;;24.20;82.80;;;;;;5083721;28;45323;-68
2022/08/27 03:02:39;;;;;;;0.55;0.40;;;24.20;82.70;;;;;;5084322;28;45463;-68
2022/08/27 03:05:07;;;;;;;0.75;0.50;;;24.20;82.60;;;;;;5083657;28;45415;-68
2022/08/27 03:07:34;;;;;;;1.20;0.50;;;24.20;82.50;;;;;;5082820;28;45364;-67
2022/08/27 03:10:03;;;;;;;0.50;0.45;;;24.20;82.40;;;;;;5082325;27;45294;-69
2022/08/27 03:12:30;;;;;;;0.75;0.40;;;24.20;82.30;;;;;;5084461;28;45300;-68
2022/08/27 03:14:57;;;;;;;0.50;0.50;;;24.20;82.30;;;;;;5051631;28;45554;-68
2022/08/27 03:20:11;;;;;;;1.50;0.43;;;24.20;81.90;;;;;;5040079;28;45365;-68
2022/08/27 03:22:38;;;;;;;0.95;0.50;;;24.20;81.90;;;;;;5052525;28;45354;-68
2022/08/27 03:25:08;;;;;;;0.45;0.43;;;24.20;81.90;;;;;;5063895;28;45326;-68
2022/08/27 03:27:35;;;;;;;0.77;0.50;;;24.20;81.90;;;;;;5063707;28;46091;-68
2022/08/27 03:30:02;;;;;;;0.90;0.57;;;24.20;81.90;;;;;;5063113;28;45299;-68
2022/08/27 03:32:29;;;;;;;1.25;0.47;;;24.20;81.90;;;;;;5063383;28;45250;-68
2022/08/27 03:34:57;;;;;;;1.67;0.60;;;24.20;81.90;;;;;;5063849;28;45420;-68
2022/08/27 03:37:24;;;;;;;0.93;0.60;;;24.20;81.90;;;;;;5063670;28;45495;-68
2022/08/27 03:39:51;;;;;;;0.70;0.45;;;24.20;81.90;;;;;;5063818;28;45358;-68
2022/08/27 03:42:19;;;;;;;0.57;0.47;;;24.20;81.90;;;;;;5063493;28;45303;-68
2022/08/27 03:44:45;;;;;;;1.10;0.60;;;24.20;81.90;;;;;;5063859;28;45403;-68
2022/08/27 03:47:12;;;;;;;0.70;0.50;;;24.20;81.90;;;;;;5062653;28;46592;-68
2022/08/27 03:49:40;;;;;;;0.57;0.50;;;24.20;81.90;;;;;;5063296;28;45425;-68
2022/08/27 03:52:07;;;;;;;0.65;0.40;;;24.20;81.90;;;;;;5063418;28;45371;-68
2022/08/27 03:54:34;;;;;;;0.45;0.45;;;24.20;81.90;;;;;;5063497;28;45388;-68
2022/08/27 03:57:01;;;;;;;1.02;0.50;;;24.20;81.90;;;;;;5063169;28;47488;-68
2022/08/27 03:59:29;;;;;;;1.27;0.50;;;24.20;81.90;;;;;;5062887;28;45434;-67
2022/08/27 04:01:56;;;;;;;0.55;0.40;;;24.20;81.90;;;;;;5063420;28;45299;-68
2022/08/27 04:04:23;;;;;;;1.88;0.70;;;24.20;81.90;;;;;;5063199;28;45467;-68
2022/08/27 04:06:50;;;;;;;0.50;0.40;;;24.20;81.50;;;;;;5063050;28;47309;-68
2022/08/27 04:09:17;;;;;;;1.30;0.60;;;24.20;81.40;;;;;;5061261;28;45340;-68
2022/08/27 04:11:44;;;;;;;0.82;0.50;;;24.20;81.40;;;;;;5062093;28;45260;-68
2022/08/27 04:14:11;;;;;;;0.38;0.38;;;24.20;81.50;;;;;;5063647;28;45418;-68
2022/08/27 04:16:40;;;;;;;1.10;0.52;;;24.20;81.40;;;;;;5062782;28;47558;-68
2022/08/27 04:19:07;;;;;;;0.52;0.52;;;24.20;81.40;;;;;;5062364;28;45434;-68
2022/08/27 04:21:35;;;;;;;0.77;0.40;;;24.20;81.20;;;;;;5061872;28;45286;-69
2022/08/27 04:24:02;;;;;;;1.00;0.60;;;24.20;81.10;;;;;;5062957;28;45579;-68
2022/08/27 04:26:29;;;;;;;0.60;0.43;;;24.20;81.00;;;;;;5062677;28;45504;-68
2022/08/27 04:28:57;;;;;;;0.40;0.40;;;24.20;81.00;;;;;;5062573;28;46161;-69
2022/08/27 04:31:24;;;;;;;0.50;0.40;;;24.20;81.00;;;;;;5062547;28;45364;-68
2022/08/27 04:33:53;;;;;;;1.23;0.68;;;24.20;81.00;;;;;;5062881;28;45270;-68
2022/08/27 04:36:21;;;;;;;1.15;0.50;;;24.20;80.80;;;;;;5060913;28;46762;-68
2022/08/27 04:38:48;;;;;;;0.43;0.40;;;24.20;80.80;;;;;;5061934;28;45468;-68
2022/08/27 04:41:22;;;;;;;0.82;0.50;;;24.20;80.60;;;;;;5061925;28;45609;-68
2022/08/27 04:43:50;;;;;;;1.00;0.60;;;24.20;80.60;;;;;;5061743;28;45594;-68
2022/08/27 04:46:22;;;;;;;0.40;0.40;;;24.20;80.50;;;;;;5061580;28;45325;-68
2022/08/27 04:48:49;;;;;;;1.33;0.60;;;24.20;80.50;;;;;;5062908;28;45361;-68
2022/08/27 04:51:18;;;;;;;1.60;0.50;;;24.20;80.50;;;;;;5061800;28;45432;-68
2022/08/27 04:53:45;;;;;;;0.47;0.40;;;24.20;80.70;;;;;;5061478;28;45462;-67
2022/08/27 04:56:14;;;;;;;0.70;0.50;;;24.20;80.40;;;;;;5062116;28;47530;-68
2022/08/27 04:58:41;;;;;;;0.65;0.60;;;24.20;80.30;;;;;;5062126;28;45317;-68
2022/08/27 05:01:09;;;;;;;2.05;0.77;;;24.20;80.30;;;;;;5060751;28;45418;-68
2022/08/27 05:03:36;;;;;;;0.90;0.60;;;24.20;80.30;;;;;;5062051;28;45417;-68
2022/08/27 05:06:05;;;;;;;1.42;0.73;;;24.20;80.30;;;;;;5081769;28;47416;-68
2022/08/27 05:08:34;;;;;;;1.30;0.60;;;24.20;80.30;;;;;;5081432;28;45474;-68
2022/08/27 05:11:01;;;;;;;1.88;0.63;;;24.20;80.10;;;;;;5080927;28;45328;-68
2022/08/27 05:13:29;;;;;;;0.55;0.45;;;24.20;80.10;;;;;;5068997;28;45249;-68
2022/08/27 05:16:01;;;;;;;0.88;0.57;;;24.20;80.10;;;;;;5041715;28;47402;-68
2022/08/27 05:18:28;;;;;;;1.00;0.60;;;24.20;79.90;;;;;;5041955;28;46533;-68
2022/08/27 05:20:55;;;;;;;1.33;0.80;;;24.10;79.90;;;;;;5044475;28;45314;-68
2022/08/27 05:23:23;;;;;;;0.70;0.60;;;24.10;79.90;;;;;;5061478;28;45309;-68
2022/08/27 05:25:52;;;;;;;0.93;0.73;;;24.10;79.90;;;;;;5061574;28;45352;-68
2022/08/27 05:28:21;;;;;;;0.95;0.60;;;24.10;79.80;;;;;;5061961;28;45299;-68
2022/08/27 05:30:51;;;;;;;0.68;0.60;;;24.20;79.90;;;;;;5061778;28;45372;-68
2022/08/27 05:33:20;;;;;;;0.70;0.60;;;24.20;79.80;;;;;;5063957;28;45495;-68
2022/08/27 05:35:49;;;;;;;0.90;0.73;;;24.20;79.90;;;;;;5065338;28;46289;-68
2022/08/27 05:38:17;;;;;;;1.13;0.88;;;24.20;79.80;;;;;;5069690;28;45651;-68
2022/08/27 05:40:44;;;;;;;0.90;0.70;;;24.20;79.80;;;;;;5085687;28;45364;-68
2022/08/27 05:43:12;;;;;;;0.80;0.60;;;24.10;79.50;;;;;;5085775;28;45238;-68
2022/08/27 05:45:41;;;;;;;1.60;0.88;;;24.20;79.60;;;;;;5085813;28;47511;-68
2022/08/27 05:48:10;;;;;;;1.10;0.82;;;24.20;79.70;;;;;;5085211;28;45356;-68
2022/08/27 05:50:37;;;;;;;1.60;1.10;;;24.20;79.70;;;;;;5085493;28;45433;-68
2022/08/27 05:53:04;;;;;;;1.25;0.77;;;24.20;79.70;;;;;;5085436;28;45353;-68
2022/08/27 05:55:35;;;;;;;1.50;0.93;;;24.20;79.80;;;;;;5084661;28;47347;-68
2022/08/27 05:58:02;;;;;;;1.10;0.90;;;24.20;80.00;;;;;;5085447;28;45321;-68
2022/08/27 06:03:14;;;;;;;1.20;0.80;;;24.20;79.80;;;;;;5085615;28;45414;-68
2022/08/27 06:05:41;;;;;;;1.98;0.90;;;24.20;79.80;;;;;;5085111;28;48021;-69
2022/08/27 06:08:08;;;;;;;2.00;0.98;;;24.20;79.60;;;;;;5085212;28;45270;-68
2022/08/27 06:10:35;;;;;;;1.60;0.90;;;24.20;79.50;;;;;;5083551;28;45336;-68
2022/08/27 06:13:02;;;;;;;1.48;0.80;;;24.20;79.50;;;;;;5078127;28;45465;-69
2022/08/27 06:15:30;;;;;;;1.60;1.08;;;24.20;79.50;;;;;;5044366;28;47516;-68
2022/08/27 06:17:57;;;;;;;2.13;1.08;;;24.20;79.50;;;;;;5044608;28;45274;-69
2022/08/27 06:20:23;;;;;;;1.45;0.95;;;24.20;80.50;;;;;;5043937;28;45206;-68
2022/08/27 06:22:50;;;;;;;1.45;1.00;;;24.20;79.60;;;;;;5043388;28;45408;-68
2022/08/27 06:25:17;;;;;;;1.00;0.75;;;24.20;79.50;;;;;;5044347;28;47901;-68
2022/08/27 06:27:44;;;;;;;1.45;0.90;;;24.20;79.60;;;;;;5044225;28;46297;-68
2022/08/27 06:30:11;;;;;;;1.58;0.80;;;24.10;79.60;;;;;;5057337;28;45340;-68
2022/08/27 06:32:40;;;;;;;1.92;0.80;;;24.10;79.60;;;;;;5064266;28;45279;-68
2022/08/27 06:35:07;;;;;;;1.08;0.85;;;24.20;79.80;;;;;;5064634;28;47620;-68
2022/08/27 06:37:35;;;;;;;3.03;1.15;;;24.20;79.80;;;;;;5063995;28;45442;-68
2022/08/27 06:40:02;;;;;;;2.03;1.02;;;24.20;79.90;;;;;;5064033;28;45423;-68
2022/08/27 06:42:30;;;;;;;1.13;0.90;;;24.20;79.90;;;;;;5064580;28;45433;-68
2022/08/27 06:44:57;;;;;;;1.75;0.95;;;24.20;79.90;;;;;;5063714;28;45508;-68
2022/08/27 06:47:23;;;;;;;1.52;0.70;;;24.20;80.00;;;;;;5064833;28;45312;-69
2022/08/27 06:49:51;;;;;;;1.50;0.90;;;24.20;80.00;;;;;;5063325;28;45343;-68
2022/08/27 06:52:18;;;;;;;1.30;0.90;;;24.20;80.00;;;;;;5064697;28;45413;-68
2022/08/27 06:54:45;;;;;;;2.60;0.80;;;24.20;80.00;;;;;;5064028;28;45302;-69
2022/08/27 06:57:12;;;;;;;1.27;0.77;;;24.20;79.90;;;;;;5063537;28;45336;-69
2022/08/27 06:59:38;;;;;;;1.40;1.00;;;24.20;80.00;;;;;;5062898;28;45277;-69
2022/08/27 07:02:05;;;;;;;1.67;0.80;;;24.20;79.90;;;;;;5064111;28;45476;-68
2022/08/27 07:04:32;;;;;;;1.00;0.80;;;24.20;79.80;;;;;;5064093;28;45317;-69
2022/08/27 07:07:01;;;;;;;2.13;0.80;;;24.20;79.70;;;;;;5063250;28;45266;-68
2022/08/27 07:09:30;;;;;;;1.33;0.85;;;24.20;79.50;;;;;;5062734;28;45707;-68
2022/08/27 07:11:57;;;;;;;0.75;0.70;;;24.20;79.50;;;;;;5063694;28;45423;-68
2022/08/27 07:14:24;;;;;;;0.95;0.70;;;24.20;79.40;;;;;;5072927;28;46608;-68
2022/08/27 07:16:51;;;;;;;0.98;0.68;;;24.20;79.30;;;;;;5083493;28;45280;-69
2022/08/27 07:19:18;;;;;;;2.08;0.90;;;24.20;79.30;;;;;;5075593;28;45329;-68
2022/08/27 07:21:45;;;;;;;1.98;1.05;;;24.10;79.20;;;;;;5063915;28;45334;-69
2022/08/27 07:24:13;;;;;;;1.10;0.80;;;24.20;79.30;;;;;;5063313;28;46361;-68
2022/08/27 07:26:43;;;;;;;1.80;0.80;;;24.20;79.20;;;;;;5058276;28;45614;-68
2022/08/27 07:29:11;;;;;;;1.00;0.82;;;24.10;79.10;;;;;;5061016;28;45411;-68
2022/08/27 07:31:39;;;;;;;1.50;0.75;;;24.20;79.20;;;;;;5057766;28;45470;-68
2022/08/27 07:34:06;;;;;;;0.98;0.75;;;24.20;79.20;;;;;;5059473;28;48069;-68
2022/08/27 07:36:34;;;;;;;1.35;0.80;;;24.10;78.90;;;;;;5061382;28;45444;-68
2022/08/27 07:39:01;;;;;;;1.60;0.90;;;24.20;79.10;;;;;;5058750;28;45510;-68
2022/08/27 07:41:30;;;;;;;1.42;0.80;;;24.20;79.00;;;;;;5060349;28;45499;-68
2022/08/27 07:46:41;;;;;;;1.30;0.98;;;24.20;78.90;;;;;;5056670;28;45320;-69
2022/08/27 07:49:08;;;;;;;1.27;0.98;;;24.20;78.90;;;;;;5058216;28;45519;-69
2022/08/27 07:51:36;;;;;;;2.13;0.90;;;24.20;78.80;;;;;;5061584;28;45253;-69
2022/08/27 07:54:03;;;;;;;1.17;0.70;;;24.20;78.80;;;;;;5065679;28;47068;-69
2022/08/27 07:56:31;;;;;;;1.02;0.80;;;24.20;78.80;;;;;;5061136;28;45403;-68
2022/08/27 07:58:58;;;;;;;1.00;0.80;;;24.20;78.80;;;;;;5059946;28;45498;-68
2022/08/27 08:01:25;;;;;;;1.55;0.85;;;24.20;78.70;;;;;;5062525;28;45295;-69
2022/08/27 08:03:51;;;;;;;2.47;1.13;;;24.20;78.70;;;;;;5061489;28;47428;-69
2022/08/27 08:06:19;;;;;;;2.00;0.90;;;24.20;78.60;;;;;;5062839;28;45334;-69
2022/08/27 08:08:45;;;;;;;1.38;0.80;;;24.20;78.40;;;;;;5057530;28;45223;-69
2022/08/27 08:11:15;;;;;;;1.17;0.85;;;24.20;78.20;;;;;;5056652;28;45513;-69
2022/08/27 08:13:44;;;;;;;3.58;0.90;;;24.20;78.10;;;;;;5062154;28;47963;-68
2022/08/27 08:16:11;;;;;;;1.10;0.90;;;24.20;78.00;;;;;;5062515;28;45571;-68
2022/08/27 08:18:38;;;;;;;2.08;0.82;;;24.20;77.80;;;;;;5063099;28;45423;-68
2022/08/27 08:21:07;;;;;;;2.58;1.00;;;24.30;77.80;;;;;;5061842;28;45531;-68
2022/08/27 08:23:34;;;;;;;1.38;1.00;;;24.20;77.70;;;;;;5059862;28;45503;-68
2022/08/27 08:26:02;;;;;;;1.27;0.90;;;24.20;77.50;;;;;;5061238;28;45875;-69
2022/08/27 08:28:29;;;;;;;1.15;1.00;;;24.30;77.60;;;;;;5063213;28;45444;-68
2022/08/27 08:30:58;;;;;;;1.80;1.10;;;24.30;77.50;;;;;;5060856;28;45452;-68
2022/08/27 08:33:26;;;;;;;2.28;1.30;;;24.20;77.30;;;;;;5061717;28;45270;-69
2022/08/27 08:35:53;;;;;;;1.70;1.08;;;24.20;77.40;;;;;;5062607;28;45434;-68
2022/08/27 08:38:20;;;;;;;1.00;0.90;;;24.30;77.40;;;;;;5062096;28;45321;-69
2022/08/27 08:40:52;;;;;;;1.48;0.90;;;24.20;77.20;;;;;;5061574;28;45457;-68
2022/08/27 08:43:28;;;;;;;2.88;1.10;;;24.30;77.20;;;;;;5061563;28;48247;-68
2022/08/27 08:46:02;;;;;;;1.55;1.02;;;24.30;77.00;;;;;;5062530;28;45390;-68
2022/08/27 08:48:31;;;;;;;3.85;1.42;;;24.30;77.20;;;;;;5062281;28;45763;-68
2022/08/27 08:51:03;;;;;;;1.58;1.10;;;24.40;76.80;;;;;;5059925;28;45595;-69
2022/08/27 08:53:39;;;;;;;16.77;1.38;;;24.40;77.10;;;;;;5046480;28;45488;-69
2022/08/27 08:56:10;;;;;;;10.93;1.90;;;24.40;76.80;;;;;;5059584;28;45439;-69
2022/08/27 08:58:43;;;;;;;9.07;1.83;;;24.40;76.60;;;;;;5062204;28;45556;-69
2022/08/27 09:01:15;;;;;;;7.43;1.90;;;24.40;76.70;;;;;;5061296;28;45415;-69
2022/08/27 09:03:53;;;;;;;5.75;1.50;;;24.40;76.40;;;;;;5062482;28;47941;-69
2022/08/27 09:06:32;;;;;;;4.88;1.60;;;24.40;76.10;;;;;;5061258;28;45592;-68
2022/08/27 09:09:05;;;;;;;3.25;1.27;;;24.40;76.40;;;;;;5058214;28;45460;-70
2022/08/27 09:11:39;;;;;;;4.18;1.15;;;24.40;76.50;;;;;;5055153;28;45554;-69
2022/08/27 09:14:19;;;;;;;6.90;2.17;;;24.40;76.40;;;;;;5062778;28;45369;-69
2022/08/27 09:16:47;;;;;;;6.82;1.38;;;24.40;76.10;;;;;;5064871;28;45439;-69
2022/08/27 09:19:13;;;;;;;2.95;1.45;;;24.40;76.00;;;;;;5069574;28;45423;-69
2022/08/27 09:21:51;;;;;;;3.80;1.35;;;24.40;75.80;;;;;;5075027;28;45447;-69
2022/08/27 09:24:25;;;;;;;3.15;1.35;;;24.40;75.80;;;;;;5065040;28;47233;-69
2022/08/27 09:26:52;;;;;;;4.88;1.30;;;24.40;75.70;;;;;;5065346;28;45201;-69
2022/08/27 09:29:19;;;;;;;2.47;1.30;;;24.40;75.70;;;;;;5065389;28;45318;-69
2022/08/27 09:31:54;;;;;;;2.22;1.30;;;24.40;75.70;;;;;;5064752;28;45474;-68
2022/08/27 09:34:22;;;;;;;6.30;1.50;;;24.40;76.20;;;;;;5062526;28;46204;-68
2022/08/27 09:36:59;;;;;;;4.65;1.73;;;24.40;76.00;;;;;;5060031;28;45304;-69
2022/08/27 09:39:29;;;;;;;2.92;1.30;;;24.40;75.80;;;;;;5065462;28;45358;-69
2022/08/27 09:41:57;;;;;;;2.45;1.25;;;24.40;75.80;;;;;;5061536;28;45380;-68
2022/08/27 09:44:24;;;;;;;3.15;1.40;;;24.40;75.90;;;;;;5062727;28;45281;-69
2022/08/27 09:46:54;;;;;;;3.05;1.30;;;24.30;75.70;;;;;;5059826;28;45397;-69
2022/08/27 09:49:22;;;;;;;2.22;1.40;;;24.30;75.80;;;;;;5064473;28;45400;-69
2022/08/27 09:51:50;;;;;;;2.42;1.25;;;24.30;75.80;;;;;;5062980;28;45411;-69
2022/08/27 09:54:39;;;;;;;5.60;1.30;;;24.30;75.90;;;;;;5064503;28;48097;-68
2022/08/27 09:57:06;;;;;;;2.15;1.25;;;24.30;75.80;;;;;;5059822;28;45421;-68
2022/08/27 09:59:36;;;;;;;1.65;1.35;;;24.30;75.90;;;;;;5064459;28;45494;-68
2022/08/27 10:02:12;;;;;;;3.15;1.40;;;24.30;75.90;;;;;;5063434;28;45539;-69
2022/08/27 10:04:42;;;;;;;3.88;1.35;;;24.30;75.90;;;;;;5064741;28;45506;-69
2022/08/27 10:07:20;;;;;;;2.80;1.20;;;24.40;76.10;;;;;;5064867;28;45529;-68
2022/08/27 10:09:52;;;;;;;2.85;1.40;;;24.40;76.30;;;;;;5062836;28;45305;-69
2022/08/27 10:12:28;;;;;;;2.00;1.23;;;24.40;76.30;;;;;;5065521;28;45546;-69
2022/08/27 10:14:58;;;;;;;2.13;1.30;;;24.30;76.30;;;;;;5064681;28;47367;-68
2022/08/27 10:17:36;;;;;;;1.70;1.30;;;24.30;76.30;;;;;;5044597;28;45353;-68
2022/08/27 10:20:12;;;;;;;2.28;1.40;;;24.40;77.30;;;;;;5053073;28;45444;-69
2022/08/27 10:22:47;;;;;;;4.05;2.00;;;24.40;76.30;;;;;;5061745;28;45349;-69
2022/08/27 10:25:26;;;;;;;2.03;1.55;;;24.30;76.20;;;;;;5063926;28;46278;-69
2022/08/27 10:28:04;;;;;;;2.85;1.30;;;24.40;76.30;;;;;;5071156;28;45302;-69
2022/08/27 10:30:44;;;;;;;1.90;1.40;;;24.40;76.20;;;;;;5084867;28;45391;-69
2022/08/27 10:33:19;;;;;;;1.80;1.30;;;24.30;76.20;;;;;;5069823;28;45270;-69
2022/08/27 10:35:49;;;;;;;2.33;1.40;;;24.30;76.10;;;;;;5064251;28;45405;-68
2022/08/27 10:38:22;;;;;;;2.17;1.60;;;24.30;76.20;;;;;;5063674;28;45387;-69
2022/08/27 10:40:54;;;;;;;2.67;1.70;;;24.30;76.20;;;;;;5063617;28;45418;-69
2022/08/27 10:44:02;;;;;;;2.72;1.38;;;24.30;76.10;;;;;;5064349;28;45397;-69
2022/08/27 10:46:42;;;;;;;2.92;1.30;;;24.30;76.10;;;;;;5050776;28;45333;-68
2022/08/27 10:49:17;;;;;;;3.08;1.50;;;24.30;76.10;;;;;;5063701;28;45286;-69
2022/08/27 10:51:52;;;;;;;5.90;1.85;;;24.30;76.10;;;;;;5064076;28;45594;-69
2022/08/27 10:54:27;;;;;;;4.55;1.70;;;24.30;76.30;;;;;;5082782;28;45432;-69
2022/08/27 10:56:58;;;;;;;1.90;1.30;;;24.30;76.20;;;;;;5067661;28;48078;-69
2022/08/27 10:59:33;;;;;;;2.15;1.67;;;24.30;76.20;;;;;;5063091;28;45583;-69
2022/08/27 11:02:08;;;;;;;2.45;1.77;;;24.30;76.10;;;;;;5063750;28;45465;-69
2022/08/27 11:04:40;;;;;;;1.60;1.33;;;24.30;75.90;;;;;;5064605;28;45339;-69
2022/08/27 11:07:14;;;;;;;2.55;1.23;;;24.30;76.00;;;;;;5062770;28;45512;-69
2022/08/27 11:09:47;;;;;;;3.15;1.70;;;24.40;75.90;;;;;;5055674;28;45328;-69
2022/08/27 11:12:21;;;;;;;2.80;1.60;;;24.30;75.70;;;;;;5063433;28;45405;-69
2022/08/27 11:14:53;;;;;;;3.10;1.73;;;24.40;75.70;;;;;;5064003;28;45232;-70
2022/08/27 11:17:26;;;;;;;34.50;4.05;;;24.40;75.70;;;;;;5063365;28;45348;-70
2022/08/27 11:20:00;;;;;;;6.35;2.25;;;24.40;76.20;;;;;;5062281;28;45372;-70
2022/08/27 11:22:33;;;;;;;11.88;2.85;;;24.40;76.10;;;;;;5064293;28;45391;-70
2022/08/27 11:25:08;;;;;;;9.93;2.65;;;24.40;76.00;;;;;;5060935;28;45437;-70
2022/08/27 11:27:37;;;;;;;8.55;1.85;;;24.40;75.90;;;;;;5062997;28;46390;-70
2022/08/27 11:30:07;;;;;;;19.23;2.20;;;24.40;75.70;;;;;;5062149;28;45300;-71
2022/08/27 11:32:45;;;;;;;8.40;2.00;;;24.40;75.80;;;;;;5063346;28;45375;-71
2022/08/27 11:35:18;;;;;;;3.83;1.60;;;24.40;75.70;;;;;;5061563;28;45339;-70
2022/08/27 11:38:26;;;;;;;7.40;1.88;;;24.40;75.40;;;;;;5063727;28;45399;-70
2022/08/27 11:41:38;;;;;;;2.88;1.55;;;24.40;75.10;;;;;;5042552;28;45277;-70
2022/08/27 11:44:05;;;;;;;3.42;1.75;;;24.40;75.10;;;;;;5060539;28;45515;-70
2022/08/27 11:46:43;;;;;;;9.63;1.50;;;24.40;75.20;;;;;;5063275;28;45481;-70
2022/08/27 11:49:10;;;;;;;2.70;1.50;;;24.40;75.30;;;;;;5062558;28;45373;-71
2022/08/27 11:51:40;;;;;;;3.80;1.58;;;24.40;75.20;;;;;;5058620;28;45486;-70
2022/08/27 11:54:10;;;;;;;3.83;1.80;;;24.40;75.10;;;;;;5064229;28;45402;-70
2022/08/27 11:56:40;;;;;;;2.80;1.50;;;24.40;75.20;;;;;;5063165;28;45481;-70
2022/08/27 11:59:20;;;;;;;2.72;1.33;;;24.40;76.20;;;;;;5062609;28;48054;-70
2022/08/27 12:01:47;;;;;;;2.50;1.48;;;24.40;75.20;;;;;;5062091;28;45482;-69
2022/08/27 12:04:32;;;;;;;2.83;1.60;;;24.40;75.00;;;;;;5063042;28;45506;-70
2022/08/27 12:07:05;;;;;;;2.40;1.48;;;24.40;75.20;;;;;;5062933;28;45483;-69
2022/08/27 12:09:52;;;;;;;3.22;1.23;;;24.40;75.20;;;;;;5068481;28;46288;-70
2022/08/27 12:12:24;;;;;;;1.92;1.13;;;24.40;75.10;;;;;;5067217;28;45333;-70
2022/08/27 12:14:59;;;;;;;2.42;1.55;;;24.40;75.00;;;;;;5063409;28;45245;-70
2022/08/27 12:17:35;;;;;;;1.90;1.10;;;24.50;75.00;;;;;;5061684;28;45510;-70
2022/08/27 12:20:10;;;;;;;1.77;1.30;;;24.50;74.90;;;;;;5061972;28;46542;-70
2022/08/27 12:25:36;;;;;;;3.65;1.55;;;24.40;74.80;;;;;;5060044;28;45321;-70
2022/08/27 12:28:05;;;;;;;2.22;1.10;;;24.50;75.00;;;;;;5065003;28;45567;-70
2022/08/27 12:30:34;;;;;;;3.08;1.27;;;24.50;74.80;;;;;;5061626;28;45505;-70
2022/08/27 12:33:10;;;;;;;1.48;0.98;;;24.50;74.80;;;;;;5062477;28;45345;-70
2022/08/27 12:35:44;;;;;;;2.38;1.38;;;24.50;74.80;;;;;;5063227;28;45381;-70
2022/08/27 12:38:17;;;;;;;2.55;1.30;;;24.50;74.70;;;;;;5065388;28;45311;-70
2022/08/27 12:40:48;;;;;;;3.60;1.30;;;24.50;74.70;;;;;;5080761;28;47947;-69
2022/08/27 12:43:20;;;;;;;2.88;1.10;;;24.50;74.70;;;;;;5069419;27;45471;-70
2022/08/27 12:45:49;;;;;;;1.80;1.30;;;24.50;74.70;;;;;;5063115;28;45547;-70
2022/08/27 12:48:20;;;;;;;1.77;0.98;;;24.50;74.80;;;;;;5062593;28;45484;-70
2022/08/27 12:50:52;;;;;;;2.05;1.00;;;24.50;74.90;;;;;;5061562;28;48405;-70
2022/08/27 12:53:34;;;;;;;4.88;1.00;;;24.50;74.80;;;;;;5062570;28;45389;-70
2022/08/27 12:56:29;;;;;;;1.55;1.10;;;24.50;74.60;;;;;;5062226;28;45495;-70
2022/08/27 12:59:03;;;;;;;2.42;1.10;;;24.50;74.90;;;;;;5057613;28;45553;-70
2022/08/27 13:01:47;;;;;;;1.48;1.08;;;24.50;75.10;;;;;;5061147;28;46236;-69
2022/08/27 13:04:22;;;;;;;2.60;1.10;;;24.50;75.10;;;;;;5061119;28;45395;-70
2022/08/27 13:06:49;;;;;;;2.65;1.20;;;24.50;75.20;;;;;;5061773;28;45393;-69
2022/08/27 13:09:26;;;;;;;2.90;1.23;;;24.50;75.10;;;;;;5061112;28;45606;-69
2022/08/27 13:11:55;;;;;;;2.28;1.13;;;24.50;74.90;;;;;;5049171;28;46402;-70